This is the latest recevied weather packets stored in our database for station/object TA8CW-13. If no packets are shown the sender has not sent any weather packets the latest 10 day(s).
| Time | Temp. | Humidity | Pressure | Rain* | Wind** | Luminosity | Snow |
|---|---|---|---|---|---|---|---|
| 1788138000 | 71° F | 50% | 755 mmHg | 0 in | - | 0 W/m² | - |
| 1788130298 | 71° F | 53% | 755.2 mmHg | 0 in | - | 0 W/m² | - |
| 1788121083 | 72° F | 53% | 755 mmHg | 0 in | - | 0 W/m² | - |
| 1788112249 | 74° F | 49% | 753.7 mmHg | 0 in | - | 0 W/m² | - |
| 1788098062 | 82° F | 30% | 752.5 mmHg | 0 in | - | 400 W/m² | - |
| 1788078500 | 76° F | 44% | 754.4 mmHg | 0 in | - | 750 W/m² | - |
| 1788056928 | 66° F | 64% | 753.7 mmHg | 0 in | - | 0 W/m² | - |
| 1788046971 | 68° F | 57% | 753.4 mmHg | 0 in | - | 0 W/m² | - |
| 1788040197 | 69° F | 49% | 753.9 mmHg | 0 in | - | 0 W/m² | - |
| 1788030026 | 71° F | 40% | 754 mmHg | 0 in | - | 0 W/m² | - |
| 1788018110 | 77° F | 31% | 752.8 mmHg | 0 in | - | 153 W/m² | - |
| 1788002074 | 82° F | 28% | 753.7 mmHg | 0 in | - | 407 W/m² | - |
| 1787976813 | 72° F | 49% | 754.3 mmHg | 0 in | - | 23 W/m² | - |
| 1787959067 | 73° F | 42% | 753.8 mmHg | 0 in | - | 0 W/m² | - |
| 1787924011 | 91° F | 21% | 752.8 mmHg | 0 in | - | 454 W/m² | - |
| 1787880854 | 79° F | 45% | 755.5 mmHg | 0 in | - | 0 W/m² | - |
| 1787850369 | 87° F | 38% | 755.2 mmHg | 0 in | - | 0 W/m² | - |
| 1787809706 | 84° F | 40% | 756.9 mmHg | 0 in | - | 220 W/m² | - |
| 1787788309 | 78° F | 55% | 756.4 mmHg | 0 in | - | 0 W/m² | - |
| 1787775754 | 80° F | 49% | 756.7 mmHg | 0 in | - | 0 W/m² | - |
| 1787767834 | 83° F | 39% | 756.7 mmHg | 0 in | - | 0 W/m² | - |
| 1787760601 | 88° F | 27% | 755.1 mmHg | 0 in | - | 76 W/m² | - |
| 1787754906 | 92° F | 23% | 754.7 mmHg | 0 in | - | 445 W/m² | - |
| 1787751908 | 93° F | 21% | 754.7 mmHg | 0 in | - | 649 W/m² | - |
| 1787747810 | 95° F | 23% | 755 mmHg | 0 in | - | 646 W/m² | - |
* Rain latest hour (hover to see other rain measurements)
** Current wind speed in m/s (hover to see current wind gust speed)